sensor_id;sensor_type;location;lat;lon;timestamp;pressure;altitude;pressure_sealevel;temperature;humidity
33163;BME280;29282;45.656;11.302;2022-08-24T00:01:03;98427.47;;;24.99;52.15
33163;BME280;29282;45.656;11.302;2022-08-24T00:03:30;98438.22;;;25.01;52.31
33163;BME280;29282;45.656;11.302;2022-08-24T00:05:56;98433.81;;;25.00;52.42
33163;BME280;29282;45.656;11.302;2022-08-24T00:08:21;98435.44;;;25.01;52.22
33163;BME280;29282;45.656;11.302;2022-08-24T00:10:47;98433.81;;;25.00;52.40
33163;BME280;29282;45.656;11.302;2022-08-24T00:13:13;98443.75;;;25.01;52.13
33163;BME280;29282;45.656;11.302;2022-08-24T00:15:39;98433.03;;;24.99;52.34
33163;BME280;29282;45.656;11.302;2022-08-24T00:18:05;98437.78;;;24.99;52.06
33163;BME280;29282;45.656;11.302;2022-08-24T00:20:31;98436.59;;;25.00;52.13
33163;BME280;29282;45.656;11.302;2022-08-24T00:22:57;98438.56;;;24.99;52.16
33163;BME280;29282;45.656;11.302;2022-08-24T00:25:22;98432.22;;;24.99;51.99
33163;BME280;29282;45.656;11.302;2022-08-24T00:27:48;98432.22;;;24.99;52.01
33163;BME280;29282;45.656;11.302;2022-08-24T00:30:16;98426.69;;;24.99;52.09
33163;BME280;29282;45.656;11.302;2022-08-24T00:32:43;98420.34;;;24.98;52.27
33163;BME280;29282;45.656;11.302;2022-08-24T00:35:10;98420.34;;;24.98;52.21
33163;BME280;29282;45.656;11.302;2022-08-24T00:37:36;98423.91;;;24.99;52.18
33163;BME280;29282;45.656;11.302;2022-08-24T00:40:05;98416.38;;;24.99;52.19
33163;BME280;29282;45.656;11.302;2022-08-24T00:42:32;98423.13;;;24.98;52.03
33163;BME280;29282;45.656;11.302;2022-08-24T00:44:58;98421.94;;;24.99;52.00
33163;BME280;29282;45.656;11.302;2022-08-24T00:47:28;98425.09;;;24.98;52.03
33163;BME280;29282;45.656;11.302;2022-08-24T00:50:00;98427.47;;;24.99;52.05
33163;BME280;29282;45.656;11.302;2022-08-24T00:52:34;98417.97;;;24.97;52.04
33163;BME280;29282;45.656;11.302;2022-08-24T00:55:26;98413.22;;;24.97;52.00
33163;BME280;29282;45.656;11.302;2022-08-24T00:57:56;98404.09;;;24.97;52.11
33163;BME280;29282;45.656;11.302;2022-08-24T01:00:26;98404.09;;;24.97;52.00
33163;BME280;29282;45.656;11.302;2022-08-24T01:02:57;98410.44;;;24.97;51.81
33163;BME280;29282;45.656;11.302;2022-08-24T01:05:25;98397.75;;;24.96;51.88
33163;BME280;29282;45.656;11.302;2022-08-24T01:07:51;98401.34;;;24.97;52.17
33163;BME280;29282;45.656;11.302;2022-08-24T01:10:20;98399.34;;;24.97;52.12
33163;BME280;29282;45.656;11.302;2022-08-24T01:12:52;98397.75;;;24.96;52.20
33163;BME280;29282;45.656;11.302;2022-08-24T01:15:19;98403.28;;;24.96;51.82
33163;BME280;29282;45.656;11.302;2022-08-24T01:17:47;98404.91;;;24.97;52.00
33163;BME280;29282;45.656;11.302;2022-08-24T01:20:32;98406.88;;;24.97;51.68
33163;BME280;29282;45.656;11.302;2022-08-24T01:23:11;98401.34;;;24.97;51.93
33163;BME280;29282;45.656;11.302;2022-08-24T01:25:42;98404.91;;;24.97;52.03
33163;BME280;29282;45.656;11.302;2022-08-24T01:28:14;98403.28;;;24.96;52.02
33163;BME280;29282;45.656;11.302;2022-08-24T01:30:41;98400.50;;;24.96;51.91
33163;BME280;29282;45.656;11.302;2022-08-24T01:33:09;98397.75;;;24.96;51.70
33163;BME280;29282;45.656;11.302;2022-08-24T01:35:37;98394.16;;;24.96;51.85
33163;BME280;29282;45.656;11.302;2022-08-24T01:38:06;98392.19;;;24.96;51.86
33163;BME280;29282;45.656;11.302;2022-08-24T01:40:43;98389.41;;;24.96;51.78
33163;BME280;29282;45.656;11.302;2022-08-24T01:43:12;98385.84;;;24.96;51.71
33163;BME280;29282;45.656;11.302;2022-08-24T01:45:39;98394.16;;;24.96;51.81
33163;BME280;29282;45.656;11.302;2022-08-24T01:48:05;98392.19;;;24.96;51.85
33163;BME280;29282;45.656;11.302;2022-08-24T01:50:31;98394.16;;;24.96;51.56
33163;BME280;29282;45.656;11.302;2022-08-24T01:52:59;98394.97;;;24.96;51.57
33163;BME280;29282;45.656;11.302;2022-08-24T01:55:26;98393.38;;;24.95;51.62
33163;BME280;29282;45.656;11.302;2022-08-24T01:57:51;98387.84;;;24.95;51.62
33163;BME280;29282;45.656;11.302;2022-08-24T02:00:17;98387.84;;;24.95;51.66
33163;BME280;29282;45.656;11.302;2022-08-24T02:02:43;98391.41;;;24.96;51.75
33163;BME280;29282;45.656;11.302;2022-08-24T02:05:12;98387.03;;;24.95;51.46
33163;BME280;29282;45.656;11.302;2022-08-24T02:07:38;98386.25;;;24.94;51.77
33163;BME280;29282;45.656;11.302;2022-08-24T02:10:05;98393.38;;;24.95;51.57
33163;BME280;29282;45.656;11.302;2022-08-24T02:12:35;98392.59;;;24.95;51.52
33163;BME280;29282;45.656;11.302;2022-08-24T02:15:03;98396.16;;;24.95;51.62
33163;BME280;29282;45.656;11.302;2022-08-24T02:17:32;98391.78;;;24.94;51.48
33163;BME280;29282;45.656;11.302;2022-08-24T02:19:59;98396.53;;;24.94;51.75
33163;BME280;29282;45.656;11.302;2022-08-24T02:22:24;98400.91;;;24.95;51.58
33163;BME280;29282;45.656;11.302;2022-08-24T02:24:50;98393.75;;;24.94;51.74
33163;BME280;29282;45.656;11.302;2022-08-24T02:27:15;98397.34;;;24.94;51.71
33163;BME280;29282;45.656;11.302;2022-08-24T02:29:41;98400.91;;;24.95;51.33
33163;BME280;29282;45.656;11.302;2022-08-24T02:32:08;98403.66;;;24.95;51.42
33163;BME280;29282;45.656;11.302;2022-08-24T02:34:33;98404.84;;;24.94;51.46
33163;BME280;29282;45.656;11.302;2022-08-24T02:36:59;98410.41;;;24.94;51.57
33163;BME280;29282;45.656;11.302;2022-08-24T02:39:25;98413.16;;;24.94;51.43
33163;BME280;29282;45.656;11.302;2022-08-24T02:41:51;98410.41;;;24.94;51.53
33163;BME280;29282;45.656;11.302;2022-08-24T02:44:17;98418.72;;;24.94;51.38
33163;BME280;29282;45.656;11.302;2022-08-24T02:46:43;98411.56;;;24.93;51.28
33163;BME280;29282;45.656;11.302;2022-08-24T02:49:09;98417.09;;;24.93;51.50
33163;BME280;29282;45.656;11.302;2022-08-24T02:51:34;98420.66;;;24.93;51.33
33163;BME280;29282;45.656;11.302;2022-08-24T02:54:01;98421.47;;;24.94;51.39
33163;BME280;29282;45.656;11.302;2022-08-24T02:56:28;98421.84;;;24.92;51.51
33163;BME280;29282;45.656;11.302;2022-08-24T02:58:55;98422.63;;;24.93;51.53
33163;BME280;29282;45.656;11.302;2022-08-24T03:01:21;98421.03;;;24.92;51.46
33163;BME280;29282;45.656;11.302;2022-08-24T03:03:46;98415.50;;;24.92;51.46
33163;BME280;29282;45.656;11.302;2022-08-24T03:06:12;98415.50;;;24.92;51.23
33163;BME280;29282;45.656;11.302;2022-08-24T03:08:38;98409.97;;;24.92;51.18
33163;BME280;29282;45.656;11.302;2022-08-24T03:11:04;98409.97;;;24.92;51.47
33163;BME280;29282;45.656;11.302;2022-08-24T03:13:30;98405.59;;;24.91;51.41
33163;BME280;29282;45.656;11.302;2022-08-24T03:15:57;98408.38;;;24.91;51.43
33163;BME280;29282;45.656;11.302;2022-08-24T03:18:24;98412.72;;;24.92;51.36
33163;BME280;29282;45.656;11.302;2022-08-24T03:20:52;98413.91;;;24.91;51.32
33163;BME280;29282;45.656;11.302;2022-08-24T03:23:17;98409.97;;;24.92;51.40
33163;BME280;29282;45.656;11.302;2022-08-24T03:25:43;98400.06;;;24.91;51.38
33163;BME280;29282;45.656;11.302;2022-08-24T03:28:09;98407.56;;;24.90;51.24
33163;BME280;29282;45.656;11.302;2022-08-24T03:30:36;98412.31;;;24.90;51.25
33163;BME280;29282;45.656;11.302;2022-08-24T03:33:04;98409.97;;;24.92;51.19
33163;BME280;29282;45.656;11.302;2022-08-24T03:35:30;98413.91;;;24.91;51.26
33163;BME280;29282;45.656;11.302;2022-08-24T03:37:55;98413.13;;;24.90;51.31
33163;BME280;29282;45.656;11.302;2022-08-24T03:40:21;98415.06;;;24.90;51.23
33163;BME280;29282;45.656;11.302;2022-08-24T03:42:48;98418.66;;;24.90;51.28
33163;BME280;29282;45.656;11.302;2022-08-24T03:45:14;98412.31;;;24.90;51.34
33163;BME280;29282;45.656;11.302;2022-08-24T03:47:40;98417.84;;;24.90;51.01
33163;BME280;29282;45.656;11.302;2022-08-24T03:50:06;98406.75;;;24.90;51.14
33163;BME280;29282;45.656;11.302;2022-08-24T03:52:33;98411.50;;;24.89;51.25
33163;BME280;29282;45.656;11.302;2022-08-24T03:55:00;98406.75;;;24.90;51.24
33163;BME280;29282;45.656;11.302;2022-08-24T03:57:26;98409.53;;;24.90;51.05
33163;BME280;29282;45.656;11.302;2022-08-24T03:59:51;98418.22;;;24.88;51.07
33163;BME280;29282;45.656;11.302;2022-08-24T04:02:17;98411.50;;;24.89;51.02
33163;BME280;29282;45.656;11.302;2022-08-24T04:04:43;98409.53;;;24.90;51.14
33163;BME280;29282;45.656;11.302;2022-08-24T04:07:08;98398.81;;;24.88;51.21
33163;BME280;29282;45.656;11.302;2022-08-24T04:09:34;98413.47;;;24.89;51.28
33163;BME280;29282;45.656;11.302;2022-08-24T04:11:59;98413.47;;;24.89;51.24
33163;BME280;29282;45.656;11.302;2022-08-24T04:14:25;98417.44;;;24.88;51.32
33163;BME280;29282;45.656;11.302;2022-08-24T04:16:51;98414.53;;;24.77;51.33
33163;BME280;29282;45.656;11.302;2022-08-24T04:19:16;98414.72;;;24.65;51.33
33163;BME280;29282;45.656;11.302;2022-08-24T04:21:42;98425.31;;;24.59;51.14
33163;BME280;29282;45.656;11.302;2022-08-24T04:24:09;98420.28;;;24.65;51.19
33163;BME280;29282;45.656;11.302;2022-08-24T04:26:37;98419.88;;;24.66;50.98
33163;BME280;29282;45.656;11.302;2022-08-24T04:29:03;98419.94;;;24.70;51.02
33163;BME280;29282;45.656;11.302;2022-08-24T04:31:29;98421.16;;;24.72;51.09
33163;BME280;29282;45.656;11.302;2022-08-24T04:33:55;98424.38;;;24.74;51.07
33163;BME280;29282;45.656;11.302;2022-08-24T04:36:22;98423.19;;;24.75;50.87
33163;BME280;29282;45.656;11.302;2022-08-24T04:38:48;98427.19;;;24.78;50.53
33163;BME280;29282;45.656;11.302;2022-08-24T04:41:16;98425.59;;;24.77;50.89
33163;BME280;29282;45.656;11.302;2022-08-24T04:43:45;98433.53;;;24.78;50.63
33163;BME280;29282;45.656;11.302;2022-08-24T04:46:13;98431.19;;;24.80;50.37
33163;BME280;29282;45.656;11.302;2022-08-24T04:48:40;98435.13;;;24.79;50.63
33163;BME280;29282;45.656;11.302;2022-08-24T04:51:07;98443.88;;;24.81;50.49
33163;BME280;29282;45.656;11.302;2022-08-24T04:53:34;98443.06;;;24.81;50.49
33163;BME280;29282;45.656;11.302;2022-08-24T04:56:00;98444.66;;;24.82;50.49
33163;BME280;29282;45.656;11.302;2022-08-24T04:58:28;98446.63;;;24.81;50.40
33163;BME280;29282;45.656;11.302;2022-08-24T05:00:54;98443.06;;;24.81;50.47
33163;BME280;29282;45.656;11.302;2022-08-24T05:03:20;98447.44;;;24.82;50.35
33163;BME280;29282;45.656;11.302;2022-08-24T05:05:48;98453.78;;;24.82;50.57
33163;BME280;29282;45.656;11.302;2022-08-24T05:08:16;98457.28;;;24.79;50.54
33163;BME280;29282;45.656;11.302;2022-08-24T05:10:44;98464.41;;;24.77;50.79
33163;BME280;29282;45.656;11.302;2022-08-24T05:13:10;98461.97;;;24.75;50.68
33163;BME280;29282;45.656;11.302;2022-08-24T05:15:41;98459.66;;;24.77;50.72
33163;BME280;29282;45.656;11.302;2022-08-24T05:18:07;98449.78;;;24.80;50.51
33163;BME280;29282;45.656;11.302;2022-08-24T05:20:40;98460.50;;;24.81;50.67
33163;BME280;29282;45.656;11.302;2022-08-24T05:23:06;98462.88;;;24.83;50.81
33163;BME280;29282;45.656;11.302;2022-08-24T05:25:31;98459.31;;;24.82;50.57
33163;BME280;29282;45.656;11.302;2022-08-24T05:27:57;98462.41;;;24.77;50.79
33163;BME280;29282;45.656;11.302;2022-08-24T05:30:23;98469.34;;;24.64;50.57
33163;BME280;29282;45.656;11.302;2022-08-24T05:32:48;98469.66;;;24.59;50.63
33163;BME280;29282;45.656;11.302;2022-08-24T05:35:14;98468.09;;;24.61;50.64
33163;BME280;29282;45.656;11.302;2022-08-24T05:37:39;98476.47;;;24.65;50.45
33163;BME280;29282;45.656;11.302;2022-08-24T05:40:10;98465.94;;;24.74;50.42
33163;BME280;29282;45.656;11.302;2022-08-24T05:42:36;98463.25;;;24.81;50.27
33163;BME280;29282;45.656;11.302;2022-08-24T05:45:02;98470.84;;;24.84;50.25
33163;BME280;29282;45.656;11.302;2022-08-24T05:47:28;98467.31;;;24.88;50.13
33163;BME280;29282;45.656;11.302;2022-08-24T05:49:53;98464.56;;;24.88;50.08
33163;BME280;29282;45.656;11.302;2022-08-24T05:52:20;98469.72;;;24.89;50.06
33163;BME280;29282;45.656;11.302;2022-08-24T05:54:54;98464.97;;;24.90;50.05
33163;BME280;29282;45.656;11.302;2022-08-24T05:57:21;98472.13;;;24.91;49.85
33163;BME280;29282;45.656;11.302;2022-08-24T05:59:47;98470.13;;;24.91;49.77
33163;BME280;29282;45.656;11.302;2022-08-24T06:02:13;98477.66;;;24.91;49.75
33163;BME280;29282;45.656;11.302;2022-08-24T06:04:39;98472.91;;;24.91;49.76
33163;BME280;29282;45.656;11.302;2022-08-24T06:07:05;98468.16;;;24.92;49.72
33163;BME280;29282;45.656;11.302;2022-08-24T06:09:34;98474.50;;;24.92;49.71
33163;BME280;29282;45.656;11.302;2022-08-24T06:12:00;98468.16;;;24.92;49.62
33163;BME280;29282;45.656;11.302;2022-08-24T06:14:26;98473.31;;;24.93;49.77
33163;BME280;29282;45.656;11.302;2022-08-24T06:16:52;98467.78;;;24.93;49.55
33163;BME280;29282;45.656;11.302;2022-08-24T06:19:19;98465.00;;;24.93;49.77
33163;BME280;29282;45.656;11.302;2022-08-24T06:21:47;98466.63;;;24.94;49.62
33163;BME280;29282;45.656;11.302;2022-08-24T06:24:14;98459.91;;;24.95;49.81
33163;BME280;29282;45.656;11.302;2022-08-24T06:26:41;98458.72;;;24.96;49.42
33163;BME280;29282;45.656;11.302;2022-08-24T06:29:26;98463.94;;;25.01;49.53
33163;BME280;29282;45.656;11.302;2022-08-24T06:31:52;98464.78;;;25.05;49.30
33163;BME280;29282;45.656;11.302;2022-08-24T06:34:18;98461.28;;;25.08;49.42
33163;BME280;29282;45.656;11.302;2022-08-24T06:36:44;98460.91;;;25.10;49.46
33163;BME280;29282;45.656;11.302;2022-08-24T06:39:10;98462.50;;;25.11;49.78
33163;BME280;29282;45.656;11.302;2022-08-24T06:41:37;98462.50;;;25.11;49.73
33163;BME280;29282;45.656;11.302;2022-08-24T06:44:03;98468.03;;;25.11;49.67
33163;BME280;29282;45.656;11.302;2022-08-24T06:46:29;98463.31;;;25.12;49.83
33163;BME280;29282;45.656;11.302;2022-08-24T06:48:54;98462.94;;;25.13;49.67
33163;BME280;29282;45.656;11.302;2022-08-24T06:51:21;98458.56;;;25.12;49.82
33163;BME280;29282;45.656;11.302;2022-08-24T06:53:47;98454.63;;;25.13;49.73
33163;BME280;29282;45.656;11.302;2022-08-24T06:56:13;98459.00;;;25.14;49.67
33163;BME280;29282;45.656;11.302;2022-08-24T06:58:39;98452.28;;;25.15;49.79
33163;BME280;29282;45.656;11.302;2022-08-24T07:01:09;98447.91;;;25.14;49.70
33163;BME280;29282;45.656;11.302;2022-08-24T07:03:35;98453.47;;;25.14;49.79
33163;BME280;29282;45.656;11.302;2022-08-24T07:06:01;98450.31;;;25.16;49.62
33163;BME280;29282;45.656;11.302;2022-08-24T07:08:28;98453.88;;;25.16;49.56
33163;BME280;29282;45.656;11.302;2022-08-24T07:10:54;98452.28;;;25.15;49.74
33163;BME280;29282;45.656;11.302;2022-08-24T07:13:20;98458.63;;;25.16;49.74
33163;BME280;29282;45.656;11.302;2022-08-24T07:15:45;98451.50;;;25.15;49.93
33163;BME280;29282;45.656;11.302;2022-08-24T07:18:12;98453.47;;;25.14;49.82
33163;BME280;29282;45.656;11.302;2022-08-24T07:20:39;98444.75;;;25.16;49.85
33163;BME280;29282;45.656;11.302;2022-08-24T07:23:05;98443.97;;;25.15;49.84
33163;BME280;29282;45.656;11.302;2022-08-24T07:25:31;98449.50;;;25.15;49.83
33163;BME280;29282;45.656;11.302;2022-08-24T07:27:58;98460.25;;;25.17;49.99
33163;BME280;29282;45.656;11.302;2022-08-24T07:30:26;98459.81;;;25.15;49.93
33163;BME280;29282;45.656;11.302;2022-08-24T07:32:52;98455.84;;;25.16;50.08
33163;BME280;29282;45.656;11.302;2022-08-24T07:35:17;98451.50;;;25.15;49.96
33163;BME280;29282;45.656;11.302;2022-08-24T07:37:43;98454.63;;;25.13;49.95
33163;BME280;29282;45.656;11.302;2022-08-24T07:40:09;98457.41;;;25.13;49.99
33163;BME280;29282;45.656;11.302;2022-08-24T07:42:34;98461.78;;;25.14;50.02
33163;BME280;29282;45.656;11.302;2022-08-24T07:45:00;98461.78;;;25.14;50.02
33163;BME280;29282;45.656;11.302;2022-08-24T07:47:26;98462.13;;;25.13;49.87
33163;BME280;29282;45.656;11.302;2022-08-24T07:49:52;98460.16;;;25.13;50.14
33163;BME280;29282;45.656;11.302;2022-08-24T07:52:18;98461.00;;;25.14;50.12
33163;BME280;29282;45.656;11.302;2022-08-24T07:54:43;98462.94;;;25.13;50.39
33163;BME280;29282;45.656;11.302;2022-08-24T07:57:09;98461.34;;;25.12;50.17
33163;BME280;29282;45.656;11.302;2022-08-24T07:59:35;98462.13;;;25.13;50.29
33163;BME280;29282;45.656;11.302;2022-08-24T08:02:01;98456.97;;;25.11;50.18
33163;BME280;29282;45.656;11.302;2022-08-24T08:04:27;98466.88;;;25.12;50.25
33163;BME280;29282;45.656;11.302;2022-08-24T08:06:53;98468.88;;;25.12;50.11
33163;BME280;29282;45.656;11.302;2022-08-24T08:09:19;98455.38;;;25.10;50.43
33163;BME280;29282;45.656;11.302;2022-08-24T08:11:45;98462.50;;;25.11;50.45
33163;BME280;29282;45.656;11.302;2022-08-24T08:14:12;98465.63;;;25.09;50.52
33163;BME280;29282;45.656;11.302;2022-08-24T08:16:39;98467.25;;;25.11;50.42
33163;BME280;29282;45.656;11.302;2022-08-24T08:19:05;98465.63;;;25.09;50.56
33163;BME280;29282;45.656;11.302;2022-08-24T08:21:31;98470.03;;;25.11;50.40
33163;BME280;29282;45.656;11.302;2022-08-24T08:24:15;98468.41;;;25.09;50.46
33163;BME280;29282;45.656;11.302;2022-08-24T08:26:47;98468.41;;;25.09;50.46
33163;BME280;29282;45.656;11.302;2022-08-24T08:29:15;98471.19;;;25.09;50.47
33163;BME280;29282;45.656;11.302;2022-08-24T08:31:42;98472.38;;;25.08;50.70
33163;BME280;29282;45.656;11.302;2022-08-24T08:34:09;98474.34;;;25.08;50.67
33163;BME280;29282;45.656;11.302;2022-08-24T08:36:35;98472.38;;;25.08;50.80
33163;BME280;29282;45.656;11.302;2022-08-24T08:39:04;98469.59;;;25.08;50.58
33163;BME280;29282;45.656;11.302;2022-08-24T08:44:35;98473.16;;;25.09;50.58
33163;BME280;29282;45.656;11.302;2022-08-24T08:59:00;98473.53;;;25.07;50.63
33163;BME280;29282;45.656;11.302;2022-08-24T09:01:55;98472.38;;;25.08;50.67
33163;BME280;29282;45.656;11.302;2022-08-24T09:04:57;98469.59;;;25.08;50.64
33163;BME280;29282;45.656;11.302;2022-08-24T09:18:50;98469.22;;;25.10;50.66
33163;BME280;29282;45.656;11.302;2022-08-24T09:21:40;98471.19;;;25.09;50.71
33163;BME280;29282;45.656;11.302;2022-08-24T09:35:52;98458.13;;;25.10;50.98
33163;BME280;29282;45.656;11.302;2022-08-24T09:44:25;98443.44;;;25.09;50.66
33163;BME280;29282;45.656;11.302;2022-08-24T09:52:27;98445.06;;;25.11;50.65
33163;BME280;29282;45.656;11.302;2022-08-24T10:00:46;98429.22;;;25.11;51.02
33163;BME280;29282;45.656;11.302;2022-08-24T10:25:50;98401.16;;;25.13;50.74
33163;BME280;29282;45.656;11.302;2022-08-24T10:31:38;98405.53;;;25.14;50.75
33163;BME280;29282;45.656;11.302;2022-08-24T10:39:55;98395.25;;;25.14;50.70
33163;BME280;29282;45.656;11.302;2022-08-24T10:53:25;98397.63;;;25.16;50.40
33163;BME280;29282;45.656;11.302;2022-08-24T11:01:21;98389.31;;;25.16;50.77
33163;BME280;29282;45.656;11.302;2022-08-24T11:03:50;98392.09;;;25.16;50.89
33163;BME280;29282;45.656;11.302;2022-08-24T11:06:18;98392.88;;;25.16;50.61
33163;BME280;29282;45.656;11.302;2022-08-24T11:09:00;98387.31;;;25.16;50.63
33163;BME280;29282;45.656;11.302;2022-08-24T11:11:38;98391.72;;;25.17;50.83
33163;BME280;29282;45.656;11.302;2022-08-24T11:16:48;98385.00;;;25.18;50.74
33163;BME280;29282;45.656;11.302;2022-08-24T11:19:34;98388.16;;;25.17;50.82
33163;BME280;29282;45.656;11.302;2022-08-24T11:22:20;98390.53;;;25.18;50.63
33163;BME280;29282;45.656;11.302;2022-08-24T11:24:51;98390.53;;;25.18;50.74
33163;BME280;29282;45.656;11.302;2022-08-24T11:27:37;98386.97;;;25.18;50.72
33163;BME280;29282;45.656;11.302;2022-08-24T11:32:59;98386.56;;;25.19;50.81
33163;BME280;29282;45.656;11.302;2022-08-24T11:37:57;98385.00;;;25.18;50.70
33163;BME280;29282;45.656;11.302;2022-08-24T11:40:29;98385.00;;;25.18;50.72
33163;BME280;29282;45.656;11.302;2022-08-24T11:43:27;98388.56;;;25.19;50.90
33163;BME280;29282;45.656;11.302;2022-08-24T11:51:17;98381.03;;;25.19;50.65
33163;BME280;29282;45.656;11.302;2022-08-24T11:59:36;98370.72;;;25.20;50.79
33163;BME280;29282;45.656;11.302;2022-08-24T12:02:07;98382.66;;;25.20;50.73
33163;BME280;29282;45.656;11.302;2022-08-24T12:05:00;98374.31;;;25.20;50.81
33163;BME280;29282;45.656;11.302;2022-08-24T12:19:18;98370.38;;;25.21;50.91
33163;BME280;29282;45.656;11.302;2022-08-24T12:21:51;98378.69;;;25.21;50.89
33163;BME280;29282;45.656;11.302;2022-08-24T12:24:34;98370.28;;;25.14;51.06
33163;BME280;29282;45.656;11.302;2022-08-24T12:27:15;98373.75;;;25.07;50.68
33163;BME280;29282;45.656;11.302;2022-08-24T12:29:48;98370.94;;;25.04;50.68
33163;BME280;29282;45.656;11.302;2022-08-24T12:32:24;98369.31;;;25.03;49.99
33163;BME280;29282;45.656;11.302;2022-08-24T12:35:06;98362.19;;;25.02;49.39
33163;BME280;29282;45.656;11.302;2022-08-24T12:37:42;98364.94;;;25.02;48.61
33163;BME280;29282;45.656;11.302;2022-08-24T12:45:33;98360.56;;;24.97;47.88
33163;BME280;29282;45.656;11.302;2022-08-24T12:48:23;98357.78;;;24.97;48.25
33163;BME280;29282;45.656;11.302;2022-08-24T12:59:19;98344.47;;;25.10;47.98
33163;BME280;29282;45.656;11.302;2022-08-24T13:04:43;98342.56;;;25.14;47.76
33163;BME280;29282;45.656;11.302;2022-08-24T13:15:25;98342.16;;;25.16;47.71
33163;BME280;29282;45.656;11.302;2022-08-24T13:19:08;98340.16;;;25.13;48.29
33163;BME280;29282;45.656;11.302;2022-08-24T13:21:15;98338.50;;;25.08;48.65
33163;BME280;29282;45.656;11.302;2022-08-24T13:23:41;98329.34;;;25.04;48.37
33163;BME280;29282;45.656;11.302;2022-08-24T13:28:43;98342.78;;;25.02;48.14
33163;BME280;29282;45.656;11.302;2022-08-24T13:31:35;98332.09;;;25.00;48.35
33163;BME280;29282;45.656;11.302;2022-08-24T13:36:42;98329.66;;;24.99;47.70
33163;BME280;29282;45.656;11.302;2022-08-24T13:39:21;98332.44;;;24.99;47.69
33163;BME280;29282;45.656;11.302;2022-08-24T13:45:01;98332.03;;;24.97;47.50
33163;BME280;29282;45.656;11.302;2022-08-24T13:53:27;98341.84;;;24.91;47.45
33163;BME280;29282;45.656;11.302;2022-08-24T14:11:59;98339.50;;;24.93;46.44
33163;BME280;29282;45.656;11.302;2022-08-24T14:17:21;98337.97;;;24.99;46.51
33163;BME280;29282;45.656;11.302;2022-08-24T14:23:45;98334.03;;;25.00;45.95
33163;BME280;29282;45.656;11.302;2022-08-24T14:37:05;98341.63;;;25.06;45.96
33163;BME280;29282;45.656;11.302;2022-08-24T14:44:50;98336.91;;;25.07;46.35
33163;BME280;29282;45.656;11.302;2022-08-24T14:47:30;98339.69;;;25.07;46.21
33163;BME280;29282;45.656;11.302;2022-08-24T14:50:10;98339.25;;;25.05;46.53
33163;BME280;29282;45.656;11.302;2022-08-24T14:58:18;98352.38;;;25.08;46.19
33163;BME280;29282;45.656;11.302;2022-08-24T15:01:06;98352.38;;;25.08;46.24
33163;BME280;29282;45.656;11.302;2022-08-24T15:04:00;98344.41;;;25.06;46.85
33163;BME280;29282;45.656;11.302;2022-08-24T15:06:51;98349.16;;;25.06;46.71
33163;BME280;29282;45.656;11.302;2022-08-24T15:09:41;98351.94;;;25.06;46.81
33163;BME280;29282;45.656;11.302;2022-08-24T15:12:28;98349.94;;;25.06;46.96
33163;BME280;29282;45.656;11.302;2022-08-24T15:18:24;98349.16;;;25.06;46.81
33163;BME280;29282;45.656;11.302;2022-08-24T15:26:16;98342.50;;;25.11;46.90
33163;BME280;29282;45.656;11.302;2022-08-24T15:28:50;98344.47;;;25.10;47.08
33163;BME280;29282;45.656;11.302;2022-08-24T15:31:23;98344.47;;;25.10;46.95
33163;BME280;29282;45.656;11.302;2022-08-24T15:33:58;98343.66;;;25.09;47.23
33163;BME280;29282;45.656;11.302;2022-08-24T15:36:30;98350.03;;;25.10;47.11
33163;BME280;29282;45.656;11.302;2022-08-24T15:38:59;98340.50;;;25.11;47.18
33163;BME280;29282;45.656;11.302;2022-08-24T15:41:31;98346.88;;;25.12;47.36
33163;BME280;29282;45.656;11.302;2022-08-24T15:44:01;98346.06;;;25.11;47.02
33163;BME280;29282;45.656;11.302;2022-08-24T15:46:41;98346.88;;;25.12;47.35
33163;BME280;29282;45.656;11.302;2022-08-24T15:51:54;98341.34;;;25.12;47.39
33163;BME280;29282;45.656;11.302;2022-08-24T15:56:49;98348.47;;;25.13;47.36
33163;BME280;29282;45.656;11.302;2022-08-24T16:07:34;98344.91;;;25.12;47.63
33163;BME280;29282;45.656;11.302;2022-08-24T16:10:42;98342.94;;;25.13;47.68
33163;BME280;29282;45.656;11.302;2022-08-24T16:21:16;98342.94;;;25.13;47.87
33163;BME280;29282;45.656;11.302;2022-08-24T16:23:44;98343.72;;;25.13;47.79
33163;BME280;29282;45.656;11.302;2022-08-24T16:26:26;98337.75;;;25.11;47.95
33163;BME280;29282;45.656;11.302;2022-08-24T16:28:52;98342.13;;;25.12;47.91
33163;BME280;29282;45.656;11.302;2022-08-24T16:34:22;98340.94;;;25.13;48.17
33163;BME280;29282;45.656;11.302;2022-08-24T16:36:48;98341.34;;;25.12;48.05
33163;BME280;29282;45.656;11.302;2022-08-24T16:39:13;98336.59;;;25.12;47.82
33163;BME280;29282;45.656;11.302;2022-08-24T16:41:40;98341.34;;;25.12;48.08
33163;BME280;29282;45.656;11.302;2022-08-24T16:44:06;98343.72;;;25.13;48.13
33163;BME280;29282;45.656;11.302;2022-08-24T16:46:34;98331.84;;;25.13;48.15
33163;BME280;29282;45.656;11.302;2022-08-24T16:48:59;98331.03;;;25.12;48.04
33163;BME280;29282;45.656;11.302;2022-08-24T16:51:25;98338.19;;;25.13;48.13
33163;BME280;29282;45.656;11.302;2022-08-24T16:53:51;98340.94;;;25.13;48.21
33163;BME280;29282;45.656;11.302;2022-08-24T16:56:18;98341.78;;;25.14;48.13
33163;BME280;29282;45.656;11.302;2022-08-24T16:58:45;98344.53;;;25.14;48.28
33163;BME280;29282;45.656;11.302;2022-08-24T17:01:11;98350.09;;;25.14;48.34
33163;BME280;29282;45.656;11.302;2022-08-24T17:03:38;98348.13;;;25.14;48.33
33163;BME280;29282;45.656;11.302;2022-08-24T17:06:04;98349.25;;;25.13;48.42
33163;BME280;29282;45.656;11.302;2022-08-24T17:08:30;98352.03;;;25.13;48.48
33163;BME280;29282;45.656;11.302;2022-08-24T17:10:56;98354.03;;;25.13;48.48
33163;BME280;29282;45.656;11.302;2022-08-24T17:13:22;98355.63;;;25.14;48.54